Time;durP1;ratioP1;P1;durP2;ratioP2;P2;SDS_P1;SDS_P2;PMS_P1;PMS_P2;Temp;Humidity;BMP_temperature;BMP_pressure;BME280_temperature;BME280_humidity;BME280_pressure;Samples;Min_cycle;Max_cycle;Signal;HPM_P1;HPM_P2
2022/08/28 00:01:38;;;;;;;95.78;70.45;;;;;;;17.76;100.00;96684.63;5033120;28;20210;-64
2022/08/28 00:04:04;;;;;;;109.95;98.53;;;;;;;17.66;100.00;96679.38;5032100;28;20214;-64
2022/08/28 00:06:29;;;;;;;137.98;124.35;;;;;;;17.63;100.00;96675.41;5033658;28;20241;-63
2022/08/28 00:08:55;;;;;;;97.80;81.30;;;;;;;17.70;100.00;96672.47;5045138;28;20213;-63
2022/08/28 00:11:20;;;;;;;102.47;86.37;;;;;;;17.68;100.00;96675.38;5045537;28;20203;-63
2022/08/28 00:13:47;;;;;;;114.83;102.53;;;;;;;17.68;100.00;96674.59;5049192;28;20174;-63
2022/08/28 00:16:12;;;;;;;95.83;82.43;;;;;;;17.56;100.00;96682.84;5053073;28;20191;-63
2022/08/28 00:18:38;;;;;;;103.93;87.57;;;;;;;17.46;100.00;96690.84;5043946;28;20466;-63
2022/08/28 00:21:04;;;;;;;125.10;102.73;;;;;;;17.73;100.00;96688.59;5041944;28;20184;-63
2022/08/28 00:23:31;;;;;;;152.93;138.25;;;;;;;17.64;100.00;96692.91;5052927;28;20186;-63
2022/08/28 00:25:58;;;;;;;119.10;106.67;;;;;;;17.69;100.00;96695.53;5045825;28;20529;-63
2022/08/28 00:28:23;;;;;;;129.88;116.78;;;;;;;17.77;100.00;96686.22;5033134;28;20171;-63
2022/08/28 00:30:52;;;;;;;96.53;75.53;;;;;;;17.78;100.00;96701.03;5031059;28;20595;-64
2022/08/28 00:33:33;;;;;;;87.03;61.88;;;;;;;17.81;100.00;96697.84;5034467;28;20532;-63
2022/08/28 00:36:01;;;;;;;136.55;123.15;;;;;;;17.67;100.00;96687.03;5029139;28;20170;-64
2022/08/28 00:38:27;;;;;;;100.20;71.00;;;;;;;17.83;100.00;96691.19;5052832;28;20598;-64
2022/08/28 00:40:56;;;;;;;129.05;115.60;;;;;;;17.82;100.00;96694.94;5053047;28;20193;-64
2022/08/28 00:43:37;;;;;;;98.70;81.53;;;;;;;17.79;100.00;96692.00;5052306;28;20194;-64
2022/08/28 00:46:07;;;;;;;98.13;85.03;;;;;;;17.72;100.00;96687.00;5051573;28;20170;-64
2022/08/28 00:48:33;;;;;;;93.37;67.93;;;;;;;17.73;100.00;96687.81;5052502;28;20169;-64
2022/08/28 00:53:44;;;;;;;103.90;84.57;;;;;;;17.60;100.00;96693.72;5052375;28;20474;-65
2022/08/28 00:56:11;;;;;;;88.95;68.05;;;;;;;17.71;100.00;96687.31;5044023;28;20182;-64
2022/08/28 00:58:38;;;;;;;100.97;82.95;;;;;;;17.61;100.00;96690.03;5033147;28;20273;-64
2022/08/28 01:01:04;;;;;;;100.82;89.95;;;;;;;17.65;100.00;96680.44;5033034;28;20186;-64
2022/08/28 01:03:29;;;;;;;83.80;70.77;;;;;;;17.68;100.00;96677.22;5035591;28;20253;-65
2022/08/28 01:05:56;;;;;;;102.00;86.93;;;;;;;17.77;100.00;96676.41;5032331;28;20530;-64
2022/08/28 01:08:21;;;;;;;118.97;106.53;;;;;;;17.78;100.00;96677.97;5041735;28;20736;-64
2022/08/28 01:10:52;;;;;;;88.67;70.40;;;;;;;17.74;100.00;96678.78;5034763;28;20207;-64
2022/08/28 01:13:18;;;;;;;82.00;61.17;;;;;;;17.61;100.00;96680.19;5049406;28;20174;-64
2022/08/28 01:15:44;;;;;;;83.53;70.80;;;;;;;17.59;100.00;96682.31;5048014;28;20181;-64
2022/08/28 01:18:14;;;;;;;83.83;66.80;;;;;;;17.59;100.00;96684.94;5032221;28;20708;-64
2022/08/28 01:20:58;;;;;;;86.20;65.47;;;;;;;17.64;100.00;96684.94;5032026;28;20179;-64
2022/08/28 01:23:38;;;;;;;82.45;68.70;;;;;;;17.61;100.00;96688.13;5031579;28;20252;-64
2022/08/28 01:26:03;;;;;;;78.50;60.80;;;;;;;17.61;100.00;96688.13;5044200;28;20549;-64
2022/08/28 01:28:29;;;;;;;90.82;78.00;;;;;;;17.65;100.00;96683.09;5052253;28;20523;-64
2022/08/28 01:30:54;;;;;;;101.78;91.25;;;;;;;17.69;100.00;96679.63;5032389;28;20685;-64
2022/08/28 01:33:20;;;;;;;94.60;84.93;;;;;;;17.67;100.00;96688.91;5032353;28;20186;-64
2022/08/28 01:35:46;;;;;;;128.63;115.93;;;;;;;17.65;100.00;96669.84;5040683;28;20184;-64
2022/08/28 01:38:13;;;;;;;128.30;116.13;;;;;;;17.72;100.00;96673.00;5039555;28;20201;-64
2022/08/28 01:40:42;;;;;;;153.57;139.80;;;;;;;17.61;100.00;96677.53;5032514;28;20183;-64
2022/08/28 01:43:18;;;;;;;133.27;121.17;;;;;;;17.56;100.00;96674.09;5032013;28;20572;-64
2022/08/28 01:45:47;;;;;;;129.90;117.60;;;;;;;17.61;100.00;96677.53;5040201;28;20168;-64
2022/08/28 01:48:14;;;;;;;87.07;77.70;;;;;;;17.51;100.00;96672.25;5051944;28;20173;-65
2022/08/28 01:50:42;;;;;;;174.05;159.30;;;;;;;17.51;100.00;96677.56;5051656;28;20519;-64
2022/08/28 01:53:08;;;;;;;142.17;129.63;;;;;;;17.41;100.00;96678.41;5051302;28;20626;-64
2022/08/28 01:55:35;;;;;;;127.90;115.50;;;;;;;17.41;100.00;96683.72;5045675;28;20179;-64
2022/08/28 01:58:02;;;;;;;142.17;127.93;;;;;;;17.34;100.00;96680.56;5032740;28;20187;-64
2022/08/28 02:00:28;;;;;;;101.80;76.13;;;;;;;17.34;100.00;96685.06;5036294;28;20182;-64
2022/08/28 02:02:56;;;;;;;106.67;81.87;;;;;;;17.30;100.00;96684.03;5036730;28;20702;-64
2022/08/28 02:05:24;;;;;;;132.47;115.67;;;;;;;17.33;100.00;96692.22;5044291;28;20186;-64
2022/08/28 02:07:51;;;;;;;122.37;104.60;;;;;;;17.38;100.00;96686.91;5055560;28;20221;-64
2022/08/28 02:10:18;;;;;;;106.17;67.93;;;;;;;17.46;100.00;96691.63;5052542;28;20197;-64
2022/08/28 02:12:43;;;;;;;114.83;99.90;;;;;;;17.43;100.00;96686.88;5031512;28;20622;-64
2022/08/28 02:15:10;;;;;;;114.17;88.87;;;;;;;17.47;100.00;96692.44;5035732;28;20198;-64
2022/08/28 02:17:35;;;;;;;109.20;85.57;;;;;;;17.35;100.00;96686.66;5044743;28;20197;-64
2022/08/28 02:20:00;;;;;;;92.93;55.67;;;;;;;17.41;100.00;96696.16;5055016;28;20195;-64
2022/08/28 02:22:26;;;;;;;92.13;53.77;;;;;;;17.36;100.00;96686.38;5055467;28;20277;-65
2022/08/28 02:24:52;;;;;;;91.83;57.13;;;;;;;17.33;100.00;96688.78;5055483;28;20235;-64
2022/08/28 02:27:18;;;;;;;88.87;54.23;;;;;;;17.35;100.00;96686.66;5048658;28;20232;-65
2022/08/28 02:29:43;;;;;;;107.47;81.30;;;;;;;17.32;100.00;96687.19;5034179;28;20658;-64
2022/08/28 02:32:09;;;;;;;85.40;50.97;;;;;;;17.37;100.00;96684.53;5035665;28;20603;-64
2022/08/28 02:34:35;;;;;;;88.63;61.73;;;;;;;17.43;100.00;96688.75;5046077;28;20194;-64
2022/08/28 02:37:00;;;;;;;108.40;82.03;;;;;;;17.45;100.00;96692.69;5035464;28;20185;-64
2022/08/28 02:39:26;;;;;;;105.63;83.80;;;;;;;17.45;100.00;96695.34;5042682;28;20588;-64
2022/08/28 02:41:51;;;;;;;115.03;102.57;;;;;;;17.43;100.00;96694.84;5055105;28;20189;-64
2022/08/28 02:44:16;;;;;;;102.40;68.47;;;;;;;17.35;100.00;96692.75;5054864;28;20596;-64
2022/08/28 02:46:42;;;;;;;104.53;82.27;;;;;;;17.32;100.00;96695.16;5055478;28;20490;-64
2022/08/28 02:49:08;;;;;;;97.70;75.13;;;;;;;17.38;100.00;96691.41;5055073;28;20638;-64
2022/08/28 02:51:34;;;;;;;90.13;56.93;;;;;;;17.42;100.00;96690.59;5054765;28;20684;-64
2022/08/28 02:54:00;;;;;;;88.83;54.37;;;;;;;17.42;100.00;96690.59;5041842;28;20179;-64
2022/08/28 02:56:26;;;;;;;103.67;69.43;;;;;;;17.41;100.00;96693.50;5051333;28;20200;-65
2022/08/28 02:58:51;;;;;;;103.10;73.17;;;;;;;17.36;100.00;96691.69;5054627;28;20627;-65
2022/08/28 03:01:16;;;;;;;107.73;67.10;;;;;;;17.33;100.00;96692.22;5054754;28;20268;-64
2022/08/28 03:03:42;;;;;;;110.07;84.20;;;;;;;17.34;100.00;96685.84;5046180;28;20647;-64
2022/08/28 03:06:08;;;;;;;129.88;78.97;;;;;;;17.32;100.00;96698.59;5034321;28;20175;-64
2022/08/28 03:08:34;;;;;;;148.07;65.07;;;;;;;17.43;100.00;96689.53;5035068;28;20360;-64
2022/08/28 03:10:59;;;;;;;103.37;67.97;;;;;;;17.35;100.00;96697.25;5051597;28;20674;-65
2022/08/28 03:13:25;;;;;;;120.67;107.43;;;;;;;17.38;100.00;96694.88;5054144;28;20204;-65
2022/08/28 03:15:50;;;;;;;116.23;86.10;;;;;;;17.38;100.00;96686.13;5054488;28;20189;-64
2022/08/28 03:18:17;;;;;;;96.57;69.33;;;;;;;17.37;100.00;96689.81;5042213;28;20205;-64
2022/08/28 03:20:43;;;;;;;86.67;58.43;;;;;;;17.38;100.00;96688.78;5033892;28;20195;-64
2022/08/28 03:23:27;;;;;;;94.73;57.80;;;;;;;17.40;100.00;96682.13;5049225;28;20286;-64
2022/08/28 03:26:01;;;;;;;121.60;61.60;;;;;;;17.43;100.00;96688.75;5035560;28;20497;-64
2022/08/28 03:28:30;;;;;;;132.60;57.67;;;;;;;17.30;100.00;96686.66;5032829;28;20194;-64
2022/08/28 03:30:56;;;;;;;112.53;64.63;;;;;;;17.27;100.00;96690.66;5047044;28;20206;-64
2022/08/28 03:33:25;;;;;;;109.80;59.43;;;;;;;17.27;100.00;96692.53;5054340;28;20253;-64
2022/08/28 03:35:51;;;;;;;113.17;66.73;;;;;;;17.26;100.00;96693.59;5039575;28;20205;-64
2022/08/28 03:38:16;;;;;;;100.70;58.27;;;;;;;17.29;100.00;96693.81;5040638;28;20626;-64
2022/08/28 03:40:45;;;;;;;110.33;79.37;;;;;;;17.29;100.00;96700.97;5054116;28;20189;-64
2022/08/28 03:43:16;;;;;;;91.20;57.00;;;;;;;17.27;100.00;96695.97;5054060;28;20528;-64
2022/08/28 03:46:03;;;;;;;96.57;81.13;;;;;;;17.34;100.00;96699.09;5053662;28;20202;-64
2022/08/28 03:48:32;;;;;;;90.00;70.20;;;;;;;17.48;100.00;96686.06;5053969;28;20657;-64
2022/08/28 03:50:59;;;;;;;88.57;59.90;;;;;;;17.55;100.00;96693.72;5053369;28;20588;-64
2022/08/28 03:53:27;;;;;;;91.13;57.57;;;;;;;17.63;100.00;96701.13;5053581;28;20261;-64
2022/08/28 03:55:53;;;;;;;86.30;54.47;;;;;;;17.55;100.00;96694.53;5033803;28;20197;-64
2022/08/28 03:58:19;;;;;;;80.40;57.30;;;;;;;17.48;100.00;96698.53;5034247;28;20546;-64
2022/08/28 04:00:45;;;;;;;85.03;58.30;;;;;;;17.44;100.00;96695.63;5034590;28;20411;-64
2022/08/28 04:03:11;;;;;;;77.67;54.10;;;;;;;17.35;100.00;96700.69;5035792;28;20189;-64
2022/08/28 04:05:38;;;;;;;81.60;58.10;;;;;;;17.43;100.00;96702.00;5043525;28;20186;-64
2022/08/28 04:08:04;;;;;;;84.40;58.53;;;;;;;17.44;100.00;96700.94;5053158;28;20264;-64
2022/08/28 04:10:31;;;;;;;84.10;65.67;;;;;;;17.40;100.00;96707.81;5045936;28;20643;-64
2022/08/28 04:12:56;;;;;;;81.63;55.97;;;;;;;17.45;100.00;96713.09;5038698;28;20253;-66
2022/08/28 04:15:22;;;;;;;79.77;62.23;;;;;;;17.50;100.00;96705.13;5053169;28;20316;-63
2022/08/28 04:17:48;;;;;;;81.17;60.23;;;;;;;17.49;100.00;96703.56;5053126;28;20178;-64
2022/08/28 04:20:13;;;;;;;73.73;53.80;;;;;;;17.37;100.00;96706.53;5051351;28;20643;-64
2022/08/28 04:22:39;;;;;;;76.10;52.43;;;;;;;17.41;100.00;96704.13;5052782;28;20185;-64
2022/08/28 04:25:06;;;;;;;82.43;73.60;;;;;;;17.38;100.00;96702.03;5053252;28;20189;-64
2022/08/28 04:27:32;;;;;;;76.07;61.93;;;;;;;17.34;100.00;96703.59;5045512;28;20186;-64
2022/08/28 04:29:58;;;;;;;98.77;88.70;;;;;;;17.42;100.00;96705.69;5049050;28;20259;-64
2022/08/28 04:32:23;;;;;;;88.83;80.30;;;;;;;17.35;100.00;96711.28;5033435;28;20186;-64
2022/08/28 04:34:49;;;;;;;82.07;73.50;;;;;;;17.43;100.00;96712.59;5034186;28;20178;-64
2022/08/28 04:37:15;;;;;;;71.67;59.37;;;;;;;17.43;100.00;96704.66;5033153;28;20186;-64
2022/08/28 04:39:41;;;;;;;73.00;62.13;;;;;;;17.51;100.00;96712.00;5033199;28;20546;-64
2022/08/28 04:42:06;;;;;;;76.87;68.40;;;;;;;17.46;100.00;96710.19;5048804;28;20173;-64
2022/08/28 04:44:32;;;;;;;76.03;62.97;;;;;;;17.41;100.00;96707.56;5051043;28;20212;-64
2022/08/28 04:46:57;;;;;;;68.70;53.23;;;;;;;17.53;100.00;96701.94;5052544;28;20186;-65
2022/08/28 04:49:23;;;;;;;72.03;58.70;;;;;;;17.44;100.00;96708.88;5051092;28;20260;-64
2022/08/28 04:51:48;;;;;;;67.10;50.47;;;;;;;17.34;100.00;96708.91;5052477;28;20197;-64
2022/08/28 04:54:14;;;;;;;71.37;50.50;;;;;;;17.37;100.00;96709.16;5052631;28;20217;-64
2022/08/28 04:56:40;;;;;;;67.30;54.63;;;;;;;17.34;100.00;96709.69;5048950;28;20171;-64
2022/08/28 04:59:06;;;;;;;71.53;57.77;;;;;;;17.31;100.00;96710.25;5040077;28;20186;-65
2022/08/28 05:01:31;;;;;;;80.53;72.27;;;;;;;17.38;100.00;96713.41;5050364;28;20208;-64
2022/08/28 05:03:59;;;;;;;73.67;57.33;;;;;;;17.32;100.00;96721.66;5051186;28;20619;-64
2022/08/28 05:06:27;;;;;;;74.87;63.53;;;;;;;17.31;100.00;96720.84;5035123;28;20191;-63
2022/08/28 05:08:53;;;;;;;74.73;56.73;;;;;;;17.39;100.00;96724.78;5032523;28;20214;-64
2022/08/28 05:11:22;;;;;;;70.63;58.13;;;;;;;17.41;100.00;96725.31;5042095;28;20237;-64
2022/08/28 05:13:48;;;;;;;67.77;57.77;;;;;;;17.46;100.00;96720.78;5047159;28;20217;-64
2022/08/28 05:16:15;;;;;;;66.37;59.10;;;;;;;17.32;100.00;96727.75;5032687;28;20190;-64
2022/08/28 05:18:41;;;;;;;65.80;56.10;;;;;;;17.28;100.00;96731.97;5032859;28;20179;-63
2022/08/28 05:21:19;;;;;;;77.60;69.77;;;;;;;17.37;100.00;96729.56;5031834;28;20197;-66
2022/08/28 05:23:45;;;;;;;62.47;54.60;;;;;;;17.30;100.00;96729.06;5033566;28;20167;-64
2022/08/28 05:26:16;;;;;;;74.30;59.00;;;;;;;17.29;100.00;96738.06;5032515;28;20288;-64
2022/08/28 05:28:41;;;;;;;76.83;68.83;;;;;;;17.44;100.00;96736.16;5032340;28;20529;-64
2022/08/28 05:31:27;;;;;;;69.20;54.80;;;;;;;17.41;100.00;96736.72;5052238;28;20281;-65
2022/08/28 05:33:52;;;;;;;62.07;48.63;;;;;;;17.36;100.00;96738.59;5050107;28;20248;-64
2022/08/28 05:36:20;;;;;;;57.20;45.90;;;;;;;17.48;100.00;96739.06;5043572;28;20198;-65
2022/08/28 05:38:47;;;;;;;51.17;40.70;;;;;;;17.53;100.00;96730.31;5032271;28;20635;-64
2022/08/28 05:41:22;;;;;;;59.27;52.33;;;;;;;17.49;100.00;96735.38;5032497;28;20201;-64
2022/08/28 05:43:48;;;;;;;62.17;52.00;;;;;;;17.61;100.00;96737.72;5032351;28;20181;-64
2022/08/28 05:46:15;;;;;;;74.00;66.40;;;;;;;17.43;100.00;96733.78;5048553;28;20196;-64
2022/08/28 05:48:41;;;;;;;64.63;58.20;;;;;;;17.45;100.00;96729.78;5048894;28;20200;-64
2022/08/28 05:51:11;;;;;;;71.43;63.73;;;;;;;17.53;100.00;96733.75;5030537;28;20642;-65
2022/08/28 05:53:40;;;;;;;61.97;55.57;;;;;;;17.55;100.00;96738.78;5042950;28;20193;-64
2022/08/28 05:56:06;;;;;;;65.57;58.93;;;;;;;17.46;100.00;96749.13;5052097;28;20186;-64
2022/08/28 05:58:33;;;;;;;67.23;60.50;;;;;;;17.57;100.00;96741.94;5051574;28;20178;-64
2022/08/28 06:01:07;;;;;;;68.83;61.93;;;;;;;17.61;100.00;96748.34;5045758;28;20218;-65
2022/08/28 06:03:34;;;;;;;72.10;65.17;;;;;;;17.70;100.00;96749.34;5032126;28;20186;-64
2022/08/28 06:05:59;;;;;;;92.50;84.90;;;;;;;17.53;100.00;96754.94;5031508;28;20241;-64
2022/08/28 06:08:26;;;;;;;107.60;99.10;;;;;;;17.60;100.00;96750.19;5047463;28;20222;-65
2022/08/28 06:10:51;;;;;;;125.20;115.73;;;;;;;17.62;100.00;96755.19;5038310;28;20201;-64
2022/08/28 06:13:17;;;;;;;67.50;61.10;;;;;;;17.67;100.00;96755.97;5051806;28;20193;-64
2022/08/28 06:15:43;;;;;;;63.43;57.37;;;;;;;17.79;100.00;96745.84;5041780;28;20182;-65
2022/08/28 06:18:09;;;;;;;55.63;50.10;;;;;;;17.74;100.00;96751.16;5032893;28;20286;-65
2022/08/28 06:20:41;;;;;;;58.42;52.75;;;;;;;17.76;100.00;96753.56;5031235;28;20194;-64
2022/08/28 06:23:08;;;;;;;71.50;65.32;;;;;;;17.88;100.00;96748.72;5032144;28;20178;-64
2022/08/28 06:25:38;;;;;;;95.80;88.32;;;;;;;17.91;100.00;96750.81;5031937;28;20182;-64
2022/08/28 06:28:04;;;;;;;145.70;135.85;;;;;;;18.11;100.00;96757.88;5042811;28;20197;-64
2022/08/28 06:30:29;;;;;;;193.63;180.53;;;;;;;17.89;100.00;96760.13;5051249;28;20204;-65
2022/08/28 06:32:55;;;;;;;151.35;141.50;;;;;;;17.84;100.00;96766.22;5048755;28;20518;-64
2022/08/28 06:35:20;;;;;;;167.07;155.70;;;;;;;18.02;100.00;96760.31;5037639;28;20615;-64
2022/08/28 06:37:46;;;;;;;88.32;81.13;;;;;;;18.02;100.00;96760.31;5051129;28;20217;-65
2022/08/28 06:40:12;;;;;;;123.53;115.07;;;;;;;17.90;100.00;96765.13;5051168;28;20274;-68
2022/08/28 06:42:37;;;;;;;73.60;67.60;;;;;;;17.93;100.00;96764.59;5035329;28;20337;-69
2022/08/28 06:45:03;;;;;;;57.40;52.53;;;;;;;17.84;100.00;96772.31;5016011;28;20667;-68
2022/08/28 06:47:28;;;;;;;49.47;45.25;;;;;;;17.68;100.00;96776.13;5035335;28;20205;-67
2022/08/28 06:49:54;;;;;;;49.45;44.85;;;;;;;17.95;100.00;96780.22;5045526;28;20202;-67
2022/08/28 06:52:19;;;;;;;43.40;39.33;;;;;;;17.81;100.00;96777.41;5054802;28;20232;-64
2022/08/28 06:54:45;;;;;;;40.80;37.07;;;;;;;17.90;100.00;96777.59;5053333;28;20527;-64
2022/08/28 06:57:10;;;;;;;39.35;35.58;;;;;;;18.11;100.00;96781.75;5035246;28;20214;-65
2022/08/28 06:59:35;;;;;;;40.27;36.37;;;;;;;18.21;100.00;96776.38;5034937;28;20179;-64
2022/08/28 07:02:01;;;;;;;36.55;33.13;;;;;;;18.15;100.00;96775.63;5035109;28;20178;-64
2022/08/28 07:04:26;;;;;;;35.38;32.00;;;;;;;18.10;100.00;96788.13;5035181;28;20189;-64
2022/08/28 07:06:52;;;;;;;36.00;32.65;;;;;;;18.17;100.00;96789.38;5036891;28;20186;-64
2022/08/28 07:09:17;;;;;;;36.03;32.55;;;;;;;18.00;100.00;96791.59;5046049;28;20262;-64
2022/08/28 07:11:47;;;;;;;37.10;33.33;;;;;;;18.27;100.00;96799.16;5023899;28;20597;-65
2022/08/28 07:14:13;;;;;;;32.20;28.70;;;;;;;18.17;100.00;96792.03;5034826;28;20209;-63
2022/08/28 07:16:38;;;;;;;44.33;40.60;;;;;;;18.10;100.00;96794.22;5034550;28;20210;-64
2022/08/28 07:19:06;;;;;;;65.93;61.20;;;;;;;18.32;100.00;96801.78;5052674;28;20206;-64
2022/08/28 07:21:37;;;;;;;78.22;72.78;;;;;;;18.48;100.00;96802.47;5054316;28;20537;-64
2022/08/28 07:24:03;;;;;;;82.55;76.53;;;;;;;18.69;100.00;96798.63;5054375;28;20182;-65
2022/08/28 07:26:29;;;;;;;67.03;62.20;;;;;;;18.97;100.00;96797.88;5038302;28;20240;-65
2022/08/28 07:28:54;;;;;;;41.50;38.20;;;;;;;18.96;100.00;96798.94;5035011;28;20194;-64
2022/08/28 07:31:24;;;;;;;45.30;41.65;;;;;;;18.87;100.00;96800.59;5034558;28;20230;-64
2022/08/28 07:33:51;;;;;;;49.53;45.42;;;;;;;18.90;100.00;96802.69;5042966;28;20200;-64
2022/08/28 07:36:20;;;;;;;40.45;37.38;;;;;;;18.99;100.00;96811.66;5041140;28;20218;-64
2022/08/28 07:38:46;;;;;;;44.60;40.88;;;;;;;18.85;100.00;96809.91;5034770;28;20277;-64
2022/08/28 07:41:19;;;;;;;38.60;35.15;;;;;;;18.74;100.00;96821.69;5053995;28;20186;-63
2022/08/28 07:46:29;;;;;;;37.67;33.97;;;;;;;18.79;100.00;96822.44;5035372;28;20173;-62
2022/08/28 07:48:57;;;;;;;39.03;35.58;;;;;;;18.85;100.00;96818.69;5034101;28;20187;-64
2022/08/28 07:51:23;;;;;;;41.70;38.53;;;;;;;19.08;100.00;96825.13;5048714;28;20198;-63
2022/08/28 07:53:49;;;;;;;47.67;43.63;;;;;;;19.27;100.00;96827.88;5042657;28;20189;-63
2022/08/28 07:56:15;;;;;;;56.10;51.85;;;;;;;19.01;100.00;96833.41;5052910;28;20185;-63
2022/08/28 07:58:40;;;;;;;55.53;51.10;;;;;;;19.27;100.00;96823.38;5053673;28;20205;-65
2022/08/28 08:01:06;;;;;;;56.42;52.45;;;;;;;19.30;100.00;96836.09;5034612;28;20265;-64
2022/08/28 08:03:31;;;;;;;75.05;70.35;;;;;;;19.06;100.00;96828.06;5034367;28;20186;-63
2022/08/28 08:06:03;;;;;;;80.90;75.78;;;;;;;19.41;100.00;96834.13;5034176;28;20218;-66
2022/08/28 08:08:29;;;;;;;63.72;59.10;;;;;;;19.15;100.00;96827.47;5033737;28;20589;-64
2022/08/28 08:11:17;;;;;;;71.32;66.45;;;;;;;19.37;100.00;96838.41;5031566;28;20210;-64
2022/08/28 08:13:45;;;;;;;71.03;66.15;;;;;;;19.64;100.00;96844.00;5020255;28;20163;-64
2022/08/28 08:16:19;;;;;;;59.38;55.13;;;;;;;19.59;100.00;96849.38;5033587;28;20236;-64
2022/08/28 08:18:46;;;;;;;57.55;53.60;;;;;;;19.62;100.00;96838.16;5033282;28;20194;-65
2022/08/28 08:21:14;;;;;;;45.58;42.30;;;;;;;19.86;100.00;96844.28;5031820;28;20277;-65
2022/08/28 08:23:40;;;;;;;42.30;39.08;;;;;;;19.67;100.00;96846.09;5033312;28;20305;-65
2022/08/28 08:26:08;;;;;;;49.45;46.05;;;;;;;19.66;100.00;96849.84;5033469;28;20194;-64
2022/08/28 08:28:35;;;;;;;51.20;47.53;;;;;;;20.12;100.00;96851.94;5033778;28;20183;-64
2022/08/28 08:31:02;;;;;;;52.17;48.42;;;;;;;19.71;100.00;96851.66;5044554;28;20217;-65
2022/08/28 08:33:27;;;;;;;50.00;46.50;;;;;;;19.84;100.00;96859.72;5052867;28;20177;-64
2022/08/28 08:35:54;;;;;;;50.50;46.90;;;;;;;19.82;100.00;96851.25;5044834;28;20170;-64
2022/08/28 08:38:19;;;;;;;59.83;55.47;;;;;;;19.81;100.00;96856.84;5032099;28;20550;-64
2022/08/28 08:40:44;;;;;;;47.75;44.22;;;;;;;19.70;100.00;96860.69;5030360;28;20218;-64
2022/08/28 08:43:12;;;;;;;69.90;65.32;;;;;;;19.74;100.00;96854.53;5032685;28;20608;-65
2022/08/28 08:45:39;;;;;;;72.28;67.30;;;;;;;20.06;100.00;96861.88;5032529;28;20174;-65
2022/08/28 08:48:04;;;;;;;54.10;50.35;;;;;;;20.19;100.00;96866.50;5039802;28;20185;-65
2022/08/28 08:50:34;;;;;;;54.10;50.33;;;;;;;20.30;100.00;96869.81;5052018;28;20668;-65
2022/08/28 08:53:08;;;;;;;49.10;45.60;;;;;;;20.48;100.00;96868.28;5049297;28;20186;-65
2022/08/28 08:55:56;;;;;;;37.17;34.45;;;;;;;20.83;100.00;96869.66;5046488;28;20597;-65
2022/08/28 08:58:25;;;;;;;43.83;40.35;;;;;;;20.94;100.00;96876.41;5033115;28;20175;-65
2022/08/28 09:01:00;;;;;;;47.17;43.95;;;;;;;20.86;100.00;96875.19;5033010;28;20189;-65
2022/08/28 09:03:51;;;;;;;47.25;44.05;;;;;;;21.02;100.00;96878.41;5032756;28;20518;-65
2022/08/28 09:06:26;;;;;;;92.38;86.15;;;;;;;21.44;100.00;96877.47;5031916;28;20513;-65
2022/08/28 09:08:57;;;;;;;90.47;85.10;;;;;;;21.35;100.00;96880.00;5028891;28;20241;-65
2022/08/28 09:11:53;;;;;;;101.35;95.22;;;;;;;20.92;100.00;96878.56;5030098;28;20214;-66
2022/08/28 09:14:48;;;;;;;96.15;90.45;;;;;;;21.01;100.00;96888.28;5032907;28;20194;-65
2022/08/28 09:17:17;;;;;;;90.80;85.30;;;;;;;20.81;100.00;96885.13;5032701;28;20267;-65
2022/08/28 09:19:42;;;;;;;79.35;74.35;;;;;;;21.36;100.00;96884.28;5032295;28;20481;-66
2022/08/28 09:22:08;;;;;;;79.88;74.93;;;;;;;21.26;100.00;96887.13;5032489;28;20185;-65
2022/08/28 09:24:35;;;;;;;71.88;67.22;;;;;;;21.53;97.93;96889.06;5032662;28;20186;-65
2022/08/28 09:27:06;;;;;;;51.20;47.30;;;;;;;21.69;97.25;96881.56;5030861;28;20194;-65
2022/08/28 09:29:38;;;;;;;55.10;51.55;;;;;;;21.97;95.26;96883.19;5032411;28;20522;-65
2022/08/28 09:32:17;;;;;;;75.85;71.38;;;;;;;21.78;96.55;96883.28;5033602;28;20171;-65
2022/08/28 09:35:11;;;;;;;111.93;105.38;;;;;;;21.67;95.49;96884.53;5031984;28;20252;-66
2022/08/28 09:37:38;;;;;;;70.35;65.70;;;;;;;21.69;94.86;96884.22;5033031;28;20666;-65
2022/08/28 09:40:23;;;;;;;138.07;130.18;;;;;;;21.44;97.34;96890.81;5042192;28;20205;-65
2022/08/28 09:43:25;;;;;;;127.15;119.70;;;;;;;21.66;96.11;96895.50;5032674;28;20175;-65
2022/08/28 09:46:19;;;;;;;115.60;108.70;;;;;;;21.04;99.15;96885.03;5017771;28;20203;-71
2022/08/28 09:48:47;;;;;;;123.63;116.57;;;;;;;21.02;97.62;96884.53;5032677;28;20171;-65
2022/08/28 09:51:21;;;;;;;120.50;113.45;;;;;;;21.02;98.61;96886.41;5034083;28;20301;-65
2022/08/28 09:53:49;;;;;;;108.05;101.75;;;;;;;21.31;96.99;96889.69;5029509;28;20190;-65
2022/08/28 09:56:23;;;;;;;65.30;61.25;;;;;;;21.72;95.35;96881.78;5029254;28;20501;-66
2022/08/28 09:58:56;;;;;;;81.90;76.72;;;;;;;21.86;92.73;96887.91;5026210;28;20537;-67
2022/08/28 10:01:36;;;;;;;164.38;155.30;;;;;;;21.23;97.02;96893.03;5030992;28;20183;-65
2022/08/28 10:04:21;;;;;;;97.07;91.28;;;;;;;21.53;93.21;96889.84;5030983;28;20182;-65
2022/08/28 10:06:58;;;;;;;93.63;88.03;;;;;;;22.07;91.40;96880.31;5040741;28;20209;-68
2022/08/28 10:09:42;;;;;;;165.70;156.68;;;;;;;22.11;87.40;96891.22;5044112;28;20546;-65
2022/08/28 10:12:10;;;;;;;91.00;85.45;;;;;;;21.64;89.85;96881.66;5040686;28;20197;-65
2022/08/28 10:14:49;;;;;;;104.80;98.70;;;;;;;21.63;90.00;96883.53;5049690;28;20215;-66
2022/08/28 10:17:42;;;;;;;67.50;63.17;;;;;;;21.74;88.70;96886.78;5048005;28;20166;-65
2022/08/28 10:20:30;;;;;;;95.03;89.43;;;;;;;21.81;90.47;96881.88;5051726;28;20178;-66
2022/08/28 10:23:20;;;;;;;94.20;88.57;;;;;;;21.74;91.39;96881.47;5051431;28;20340;-66
2022/08/28 10:26:08;;;;;;;92.45;87.25;;;;;;;21.49;92.53;96885.41;5032908;28;20594;-65
2022/08/28 10:28:39;;;;;;;201.20;190.23;;;;;;;21.54;93.86;96885.31;5035583;28;20182;-65
2022/08/28 10:31:23;;;;;;;185.90;175.85;;;;;;;21.87;91.62;96878.81;5035540;28;20724;-66
2022/08/28 10:34:18;;;;;;;164.68;155.32;;;;;;;22.06;89.97;96886.75;5035989;28;20187;-67
2022/08/28 10:36:55;;;;;;;215.63;204.02;;;;;;;21.86;91.30;96887.91;5043984;28;20170;-71
2022/08/28 10:39:29;;;;;;;196.43;185.70;;;;;;;21.69;91.06;96889.56;5044530;28;20239;-67
2022/08/28 10:41:58;;;;;;;123.18;116.45;;;;;;;22.06;88.00;96889.44;5041708;28;20583;-66
2022/08/28 10:44:48;;;;;;;119.00;112.30;;;;;;;22.50;86.54;96883.44;5055023;28;20265;-65
2022/08/28 10:47:14;;;;;;;95.47;89.95;;;;;;;22.49;84.04;96884.53;5048569;28;20169;-67
2022/08/28 10:49:45;;;;;;;78.13;73.53;;;;;;;22.27;84.85;96882.59;5045512;28;20185;-66
2022/08/28 10:52:20;;;;;;;79.63;74.70;;;;;;;22.05;86.64;96874.50;5055213;28;20182;-66
2022/08/28 10:54:49;;;;;;;95.88;90.22;;;;;;;21.87;85.37;96876.16;5042526;28;20186;-66
2022/08/28 10:57:38;;;;;;;75.22;70.78;;;;;;;21.81;86.04;96881.88;5035149;28;20201;-65
2022/08/28 11:00:23;;;;;;;77.57;73.05;;;;;;;21.99;83.55;96881.03;5036420;28;20641;-66
2022/08/28 11:02:54;;;;;;;99.47;93.68;;;;;;;21.87;82.53;96883.34;5042389;28;20162;-66
2022/08/28 11:05:23;;;;;;;81.75;76.72;;;;;;;21.67;84.88;96876.53;5043060;28;20179;-65
2022/08/28 11:07:53;;;;;;;89.70;84.30;;;;;;;21.98;82.73;96879.44;5041206;28;20492;-65
2022/08/28 11:10:21;;;;;;;66.85;62.85;;;;;;;22.10;84.25;96882.41;5038585;28;20228;-65
2022/08/28 11:12:50;;;;;;;79.35;74.25;;;;;;;22.16;83.55;96885.75;5053229;28;20182;-66
2022/08/28 11:15:27;;;;;;;63.45;59.60;;;;;;;22.12;81.30;96885.56;5053457;28;20585;-65
2022/08/28 11:17:56;;;;;;;31.10;29.13;;;;;;;21.73;80.04;96890.56;5043746;28;20174;-68
2022/08/28 11:20:27;;;;;;;48.53;45.65;;;;;;;21.95;79.71;96893.38;5047296;28;20189;-65
2022/08/28 11:23:19;;;;;;;47.58;44.58;;;;;;;22.47;76.14;96892.03;5053732;28;20633;-66